sensor_id;sensor_type;location;lat;lon;timestamp;P1;durP1;ratioP1;P2;durP2;ratioP2
7523;SDS011;3803;51.666;7.630;2023-12-20T00:00:01;12.63;;;6.60;;
7523;SDS011;3803;51.666;7.630;2023-12-20T00:00:21;14.50;;;6.80;;
7523;SDS011;3803;51.666;7.630;2023-12-20T00:00:44;14.27;;;7.70;;
7523;SDS011;3803;51.666;7.630;2023-12-20T00:01:05;14.03;;;8.07;;
7523;SDS011;3803;51.666;7.630;2023-12-20T00:01:26;13.18;;;7.97;;
7523;SDS011;3803;51.666;7.630;2023-12-20T00:01:46;12.70;;;7.80;;
7523;SDS011;3803;51.666;7.630;2023-12-20T00:02:07;12.55;;;7.78;;
7523;SDS011;3803;51.666;7.630;2023-12-20T00:02:28;11.25;;;7.65;;
7523;SDS011;3803;51.666;7.630;2023-12-20T00:02:49;10.25;;;7.07;;
7523;SDS011;3803;51.666;7.630;2023-12-20T00:03:09;10.47;;;7.30;;
7523;SDS011;3803;51.666;7.630;2023-12-20T00:03:32;11.07;;;7.43;;
7523;SDS011;3803;51.666;7.630;2023-12-20T00:03:52;11.60;;;7.77;;
7523;SDS011;3803;51.666;7.630;2023-12-20T00:04:13;14.18;;;7.63;;
7523;SDS011;3803;51.666;7.630;2023-12-20T00:04:34;15.18;;;7.90;;
7523;SDS011;3803;51.666;7.630;2023-12-20T00:04:54;15.97;;;7.43;;
7523;SDS011;3803;51.666;7.630;2023-12-20T00:05:15;12.00;;;7.50;;
7523;SDS011;3803;51.666;7.630;2023-12-20T00:05:36;11.65;;;7.57;;
7523;SDS011;3803;51.666;7.630;2023-12-20T00:05:58;10.07;;;7.65;;
7523;SDS011;3803;51.666;7.630;2023-12-20T00:06:19;11.05;;;8.00;;
7523;SDS011;3803;51.666;7.630;2023-12-20T00:06:39;11.45;;;8.02;;
7523;SDS011;3803;51.666;7.630;2023-12-20T00:07:00;12.32;;;7.93;;
7523;SDS011;3803;51.666;7.630;2023-12-20T00:07:24;12.40;;;7.55;;
7523;SDS011;3803;51.666;7.630;2023-12-20T00:07:44;12.80;;;7.80;;
7523;SDS011;3803;51.666;7.630;2023-12-20T00:08:08;13.18;;;8.20;;
7523;SDS011;3803;51.666;7.630;2023-12-20T00:08:29;11.98;;;8.02;;
7523;SDS011;3803;51.666;7.630;2023-12-20T00:08:50;12.20;;;7.80;;
7523;SDS011;3803;51.666;7.630;2023-12-20T00:09:11;11.38;;;7.10;;
7523;SDS011;3803;51.666;7.630;2023-12-20T00:09:32;13.75;;;7.38;;
7523;SDS011;3803;51.666;7.630;2023-12-20T00:09:53;14.27;;;7.15;;
7523;SDS011;3803;51.666;7.630;2023-12-20T00:10:16;14.65;;;7.05;;
7523;SDS011;3803;51.666;7.630;2023-12-20T00:10:36;12.38;;;7.07;;
7523;SDS011;3803;51.666;7.630;2023-12-20T00:10:57;14.82;;;7.47;;
7523;SDS011;3803;51.666;7.630;2023-12-20T00:11:18;14.13;;;7.60;;
7523;SDS011;3803;51.666;7.630;2023-12-20T00:11:39;16.98;;;7.38;;
7523;SDS011;3803;51.666;7.630;2023-12-20T00:12:02;13.68;;;7.55;;
7523;SDS011;3803;51.666;7.630;2023-12-20T00:12:23;15.13;;;7.93;;
7523;SDS011;3803;51.666;7.630;2023-12-20T00:12:44;14.33;;;8.47;;
7523;SDS011;3803;51.666;7.630;2023-12-20T00:13:07;16.60;;;9.27;;
7523;SDS011;3803;51.666;7.630;2023-12-20T00:13:28;14.88;;;9.10;;
7523;SDS011;3803;51.666;7.630;2023-12-20T00:13:48;13.57;;;8.73;;
7523;SDS011;3803;51.666;7.630;2023-12-20T00:14:09;12.80;;;8.00;;
7523;SDS011;3803;51.666;7.630;2023-12-20T00:14:30;13.45;;;7.72;;
7523;SDS011;3803;51.666;7.630;2023-12-20T00:14:51;12.43;;;7.30;;
7523;SDS011;3803;51.666;7.630;2023-12-20T00:15:12;11.07;;;7.35;;
7523;SDS011;3803;51.666;7.630;2023-12-20T00:15:33;11.25;;;7.57;;
7523;SDS011;3803;51.666;7.630;2023-12-20T00:15:54;14.10;;;8.00;;
7523;SDS011;3803;51.666;7.630;2023-12-20T00:16:15;12.60;;;7.50;;
7523;SDS011;3803;51.666;7.630;2023-12-20T00:16:35;12.40;;;7.60;;
7523;SDS011;3803;51.666;7.630;2023-12-20T00:16:56;11.10;;;7.30;;
7523;SDS011;3803;51.666;7.630;2023-12-20T00:17:17;11.50;;;7.37;;
7523;SDS011;3803;51.666;7.630;2023-12-20T00:17:38;12.15;;;7.40;;
7523;SDS011;3803;51.666;7.630;2023-12-20T00:18:00;12.05;;;7.43;;
7523;SDS011;3803;51.666;7.630;2023-12-20T00:18:21;13.00;;;7.40;;
7523;SDS011;3803;51.666;7.630;2023-12-20T00:18:42;15.80;;;7.57;;
7523;SDS011;3803;51.666;7.630;2023-12-20T00:19:02;18.17;;;7.60;;
7523;SDS011;3803;51.666;7.630;2023-12-20T00:19:23;16.83;;;7.50;;
7523;SDS011;3803;51.666;7.630;2023-12-20T00:19:44;13.38;;;7.50;;
7523;SDS011;3803;51.666;7.630;2023-12-20T00:20:05;13.10;;;7.80;;
7523;SDS011;3803;51.666;7.630;2023-12-20T00:20:27;12.50;;;7.40;;
7523;SDS011;3803;51.666;7.630;2023-12-20T00:20:48;11.52;;;7.45;;
7523;SDS011;3803;51.666;7.630;2023-12-20T00:21:09;11.27;;;7.38;;
7523;SDS011;3803;51.666;7.630;2023-12-20T00:21:29;11.63;;;7.70;;
7523;SDS011;3803;51.666;7.630;2023-12-20T00:21:50;11.97;;;8.00;;
7523;SDS011;3803;51.666;7.630;2023-12-20T00:22:11;12.10;;;7.93;;
7523;SDS011;3803;51.666;7.630;2023-12-20T00:22:31;12.90;;;8.00;;
7523;SDS011;3803;51.666;7.630;2023-12-20T00:22:54;11.75;;;7.75;;
7523;SDS011;3803;51.666;7.630;2023-12-20T00:23:16;11.75;;;7.65;;
7523;SDS011;3803;51.666;7.630;2023-12-20T00:23:37;11.17;;;7.73;;
7523;SDS011;3803;51.666;7.630;2023-12-20T00:23:57;11.30;;;7.38;;
7523;SDS011;3803;51.666;7.630;2023-12-20T00:24:18;11.20;;;7.18;;
7523;SDS011;3803;51.666;7.630;2023-12-20T00:24:39;13.07;;;7.68;;
7523;SDS011;3803;51.666;7.630;2023-12-20T00:24:59;12.80;;;7.80;;
7523;SDS011;3803;51.666;7.630;2023-12-20T00:25:20;12.97;;;8.10;;
7523;SDS011;3803;51.666;7.630;2023-12-20T00:25:41;14.07;;;7.82;;
7523;SDS011;3803;51.666;7.630;2023-12-20T00:26:02;14.13;;;8.13;;
7523;SDS011;3803;51.666;7.630;2023-12-20T00:26:22;13.50;;;8.07;;
7523;SDS011;3803;51.666;7.630;2023-12-20T00:26:48;11.38;;;8.27;;
7523;SDS011;3803;51.666;7.630;2023-12-20T00:27:09;11.85;;;8.15;;
7523;SDS011;3803;51.666;7.630;2023-12-20T00:27:29;12.88;;;7.88;;
7523;SDS011;3803;51.666;7.630;2023-12-20T00:27:50;11.98;;;7.43;;
7523;SDS011;3803;51.666;7.630;2023-12-20T00:28:11;11.23;;;7.37;;
7523;SDS011;3803;51.666;7.630;2023-12-20T00:28:32;10.65;;;7.35;;
7523;SDS011;3803;51.666;7.630;2023-12-20T00:28:52;12.07;;;7.72;;
7523;SDS011;3803;51.666;7.630;2023-12-20T00:29:13;16.10;;;8.25;;
7523;SDS011;3803;51.666;7.630;2023-12-20T00:29:34;15.15;;;8.25;;
7523;SDS011;3803;51.666;7.630;2023-12-20T00:29:55;13.55;;;7.95;;
7523;SDS011;3803;51.666;7.630;2023-12-20T00:30:16;10.53;;;7.50;;
7523;SDS011;3803;51.666;7.630;2023-12-20T00:30:36;11.25;;;7.72;;
7523;SDS011;3803;51.666;7.630;2023-12-20T00:30:57;12.20;;;7.77;;
7523;SDS011;3803;51.666;7.630;2023-12-20T00:31:18;13.02;;;7.80;;
7523;SDS011;3803;51.666;7.630;2023-12-20T00:31:39;13.93;;;7.90;;
7523;SDS011;3803;51.666;7.630;2023-12-20T00:31:59;14.57;;;7.80;;
7523;SDS011;3803;51.666;7.630;2023-12-20T00:32:20;12.77;;;7.40;;
7523;SDS011;3803;51.666;7.630;2023-12-20T00:32:41;11.93;;;7.30;;
7523;SDS011;3803;51.666;7.630;2023-12-20T00:33:09;10.75;;;7.53;;
7523;SDS011;3803;51.666;7.630;2023-12-20T00:33:29;11.07;;;7.50;;
7523;SDS011;3803;51.666;7.630;2023-12-20T00:33:50;12.63;;;7.40;;
7523;SDS011;3803;51.666;7.630;2023-12-20T00:34:11;13.30;;;7.77;;
7523;SDS011;3803;51.666;7.630;2023-12-20T00:34:32;13.32;;;7.78;;
7523;SDS011;3803;51.666;7.630;2023-12-20T00:34:53;11.18;;;7.45;;
7523;SDS011;3803;51.666;7.630;2023-12-20T00:35:16;12.15;;;7.43;;
7523;SDS011;3803;51.666;7.630;2023-12-20T00:35:37;12.93;;;7.70;;
7523;SDS011;3803;51.666;7.630;2023-12-20T00:36:00;12.88;;;7.72;;
7523;SDS011;3803;51.666;7.630;2023-12-20T00:36:20;14.73;;;8.38;;
7523;SDS011;3803;51.666;7.630;2023-12-20T00:36:41;13.60;;;8.77;;
7523;SDS011;3803;51.666;7.630;2023-12-20T00:37:02;12.23;;;8.60;;
7523;SDS011;3803;51.666;7.630;2023-12-20T00:37:23;11.95;;;8.70;;
7523;SDS011;3803;51.666;7.630;2023-12-20T00:37:44;12.60;;;8.30;;
7523;SDS011;3803;51.666;7.630;2023-12-20T00:38:05;15.93;;;8.57;;
7523;SDS011;3803;51.666;7.630;2023-12-20T00:38:27;14.43;;;8.00;;
7523;SDS011;3803;51.666;7.630;2023-12-20T00:38:48;14.60;;;8.00;;
7523;SDS011;3803;51.666;7.630;2023-12-20T00:39:08;11.13;;;7.88;;
7523;SDS011;3803;51.666;7.630;2023-12-20T00:39:29;11.88;;;7.70;;
7523;SDS011;3803;51.666;7.630;2023-12-20T00:39:50;11.65;;;7.40;;
7523;SDS011;3803;51.666;7.630;2023-12-20T00:40:11;12.95;;;7.43;;
7523;SDS011;3803;51.666;7.630;2023-12-20T00:40:32;13.60;;;8.00;;
7523;SDS011;3803;51.666;7.630;2023-12-20T00:40:53;15.27;;;8.45;;
7523;SDS011;3803;51.666;7.630;2023-12-20T00:41:14;15.27;;;8.57;;
7523;SDS011;3803;51.666;7.630;2023-12-20T00:41:35;14.00;;;8.20;;
7523;SDS011;3803;51.666;7.630;2023-12-20T00:41:55;13.02;;;7.90;;
7523;SDS011;3803;51.666;7.630;2023-12-20T00:42:16;11.85;;;7.75;;
7523;SDS011;3803;51.666;7.630;2023-12-20T00:42:37;12.70;;;8.23;;
7523;SDS011;3803;51.666;7.630;2023-12-20T00:42:57;11.60;;;8.23;;
7523;SDS011;3803;51.666;7.630;2023-12-20T00:43:18;12.00;;;7.97;;
7523;SDS011;3803;51.666;7.630;2023-12-20T00:43:41;11.52;;;7.90;;
7523;SDS011;3803;51.666;7.630;2023-12-20T00:44:04;10.70;;;7.75;;
7523;SDS011;3803;51.666;7.630;2023-12-20T00:44:25;13.23;;;8.30;;
7523;SDS011;3803;51.666;7.630;2023-12-20T00:44:48;13.52;;;8.02;;
7523;SDS011;3803;51.666;7.630;2023-12-20T00:45:11;11.43;;;7.88;;
7523;SDS011;3803;51.666;7.630;2023-12-20T00:45:31;11.10;;;7.60;;
7523;SDS011;3803;51.666;7.630;2023-12-20T00:45:52;12.27;;;8.40;;
7523;SDS011;3803;51.666;7.630;2023-12-20T00:46:13;11.35;;;8.23;;
7523;SDS011;3803;51.666;7.630;2023-12-20T00:46:33;11.57;;;8.00;;
7523;SDS011;3803;51.666;7.630;2023-12-20T00:46:54;15.10;;;7.88;;
7523;SDS011;3803;51.666;7.630;2023-12-20T00:47:17;16.25;;;8.15;;
7523;SDS011;3803;51.666;7.630;2023-12-20T00:47:38;16.60;;;8.07;;
7523;SDS011;3803;51.666;7.630;2023-12-20T00:47:59;13.27;;;7.90;;
7523;SDS011;3803;51.666;7.630;2023-12-20T00:48:22;14.88;;;8.65;;
7523;SDS011;3803;51.666;7.630;2023-12-20T00:48:43;14.35;;;8.60;;
7523;SDS011;3803;51.666;7.630;2023-12-20T00:49:06;12.88;;;8.07;;
7523;SDS011;3803;51.666;7.630;2023-12-20T00:49:26;14.45;;;8.77;;
7523;SDS011;3803;51.666;7.630;2023-12-20T00:49:47;15.23;;;9.10;;
7523;SDS011;3803;51.666;7.630;2023-12-20T00:50:08;16.30;;;9.30;;
7523;SDS011;3803;51.666;7.630;2023-12-20T00:50:29;14.05;;;8.55;;
7523;SDS011;3803;51.666;7.630;2023-12-20T00:50:50;14.90;;;8.37;;
7523;SDS011;3803;51.666;7.630;2023-12-20T00:51:11;15.95;;;8.13;;
7523;SDS011;3803;51.666;7.630;2023-12-20T00:51:32;15.43;;;8.10;;
7523;SDS011;3803;51.666;7.630;2023-12-20T00:51:53;15.32;;;8.48;;
7523;SDS011;3803;51.666;7.630;2023-12-20T00:52:14;13.32;;;8.38;;
7523;SDS011;3803;51.666;7.630;2023-12-20T00:52:34;16.45;;;9.10;;
7523;SDS011;3803;51.666;7.630;2023-12-20T00:52:55;14.60;;;8.90;;
7523;SDS011;3803;51.666;7.630;2023-12-20T00:53:19;14.40;;;9.18;;
7523;SDS011;3803;51.666;7.630;2023-12-20T00:53:40;12.70;;;9.00;;
7523;SDS011;3803;51.666;7.630;2023-12-20T00:54:00;13.30;;;9.15;;
7523;SDS011;3803;51.666;7.630;2023-12-20T00:54:21;14.00;;;8.98;;
7523;SDS011;3803;51.666;7.630;2023-12-20T00:54:42;14.18;;;9.05;;
7523;SDS011;3803;51.666;7.630;2023-12-20T00:55:06;13.60;;;8.93;;
7523;SDS011;3803;51.666;7.630;2023-12-20T00:55:27;12.10;;;8.70;;
7523;SDS011;3803;51.666;7.630;2023-12-20T00:55:50;13.27;;;8.90;;
7523;SDS011;3803;51.666;7.630;2023-12-20T00:56:11;13.40;;;9.02;;
7523;SDS011;3803;51.666;7.630;2023-12-20T00:56:32;14.85;;;9.30;;
7523;SDS011;3803;51.666;7.630;2023-12-20T00:56:53;13.18;;;8.57;;
7523;SDS011;3803;51.666;7.630;2023-12-20T00:57:14;13.48;;;8.55;;
7523;SDS011;3803;51.666;7.630;2023-12-20T00:57:35;17.98;;;9.07;;
7523;SDS011;3803;51.666;7.630;2023-12-20T00:57:58;19.50;;;9.02;;
7523;SDS011;3803;51.666;7.630;2023-12-20T00:58:20;17.88;;;8.93;;
7523;SDS011;3803;51.666;7.630;2023-12-20T00:58:41;12.53;;;8.00;;
7523;SDS011;3803;51.666;7.630;2023-12-20T00:59:05;13.15;;;8.77;;
7523;SDS011;3803;51.666;7.630;2023-12-20T00:59:25;12.98;;;8.32;;
7523;SDS011;3803;51.666;7.630;2023-12-20T00:59:46;14.23;;;9.10;;
7523;SDS011;3803;51.666;7.630;2023-12-20T01:00:07;13.07;;;8.77;;
7523;SDS011;3803;51.666;7.630;2023-12-20T01:00:31;13.25;;;9.00;;
7523;SDS011;3803;51.666;7.630;2023-12-20T01:00:52;13.68;;;8.82;;
7523;SDS011;3803;51.666;7.630;2023-12-20T01:01:14;13.00;;;8.40;;
7523;SDS011;3803;51.666;7.630;2023-12-20T01:01:35;12.68;;;8.68;;
7523;SDS011;3803;51.666;7.630;2023-12-20T01:01:56;14.32;;;9.02;;
7523;SDS011;3803;51.666;7.630;2023-12-20T01:02:17;14.20;;;9.32;;
7523;SDS011;3803;51.666;7.630;2023-12-20T01:02:38;14.60;;;8.98;;
7523;SDS011;3803;51.666;7.630;2023-12-20T01:03:01;16.75;;;9.00;;
7523;SDS011;3803;51.666;7.630;2023-12-20T01:03:22;16.40;;;8.95;;
7523;SDS011;3803;51.666;7.630;2023-12-20T01:03:43;15.95;;;8.95;;
7523;SDS011;3803;51.666;7.630;2023-12-20T01:04:03;16.75;;;8.50;;
7523;SDS011;3803;51.666;7.630;2023-12-20T01:04:24;17.38;;;8.60;;
7523;SDS011;3803;51.666;7.630;2023-12-20T01:04:45;16.58;;;8.80;;
7523;SDS011;3803;51.666;7.630;2023-12-20T01:05:06;12.23;;;8.73;;
7523;SDS011;3803;51.666;7.630;2023-12-20T01:05:29;13.70;;;8.52;;
7523;SDS011;3803;51.666;7.630;2023-12-20T01:05:50;16.73;;;9.13;;
7523;SDS011;3803;51.666;7.630;2023-12-20T01:06:11;14.73;;;8.90;;
7523;SDS011;3803;51.666;7.630;2023-12-20T01:06:34;16.95;;;8.90;;
7523;SDS011;3803;51.666;7.630;2023-12-20T01:06:55;14.52;;;8.30;;
7523;SDS011;3803;51.666;7.630;2023-12-20T01:07:16;14.57;;;8.05;;
7523;SDS011;3803;51.666;7.630;2023-12-20T01:07:37;12.33;;;7.57;;
7523;SDS011;3803;51.666;7.630;2023-12-20T01:07:58;13.57;;;8.00;;
7523;SDS011;3803;51.666;7.630;2023-12-20T01:08:18;14.35;;;8.60;;
7523;SDS011;3803;51.666;7.630;2023-12-20T01:08:40;14.60;;;8.80;;
7523;SDS011;3803;51.666;7.630;2023-12-20T01:09:00;13.95;;;8.68;;
7523;SDS011;3803;51.666;7.630;2023-12-20T01:09:21;12.88;;;8.52;;
7523;SDS011;3803;51.666;7.630;2023-12-20T01:09:49;13.60;;;8.80;;
7523;SDS011;3803;51.666;7.630;2023-12-20T01:10:09;16.42;;;9.48;;
7523;SDS011;3803;51.666;7.630;2023-12-20T01:10:32;16.42;;;9.18;;
7523;SDS011;3803;51.666;7.630;2023-12-20T01:10:53;17.45;;;8.98;;
7523;SDS011;3803;51.666;7.630;2023-12-20T01:11:14;16.83;;;8.98;;
7523;SDS011;3803;51.666;7.630;2023-12-20T01:11:35;16.35;;;9.15;;
7523;SDS011;3803;51.666;7.630;2023-12-20T01:11:56;15.02;;;9.50;;
7523;SDS011;3803;51.666;7.630;2023-12-20T01:12:19;16.67;;;9.70;;
7523;SDS011;3803;51.666;7.630;2023-12-20T01:12:40;17.58;;;9.85;;
7523;SDS011;3803;51.666;7.630;2023-12-20T01:13:04;16.38;;;9.45;;
7523;SDS011;3803;51.666;7.630;2023-12-20T01:13:28;17.30;;;9.27;;
7523;SDS011;3803;51.666;7.630;2023-12-20T01:13:52;16.65;;;9.18;;
7523;SDS011;3803;51.666;7.630;2023-12-20T01:14:15;17.52;;;9.20;;
7523;SDS011;3803;51.666;7.630;2023-12-20T01:14:36;17.42;;;8.88;;
7523;SDS011;3803;51.666;7.630;2023-12-20T01:14:57;14.77;;;8.50;;
7523;SDS011;3803;51.666;7.630;2023-12-20T01:15:19;14.13;;;8.70;;
7523;SDS011;3803;51.666;7.630;2023-12-20T01:15:39;13.25;;;8.85;;
7523;SDS011;3803;51.666;7.630;2023-12-20T01:16:00;14.10;;;9.05;;
7523;SDS011;3803;51.666;7.630;2023-12-20T01:16:21;13.60;;;9.10;;
7523;SDS011;3803;51.666;7.630;2023-12-20T01:16:42;12.68;;;9.02;;
7523;SDS011;3803;51.666;7.630;2023-12-20T01:17:06;13.30;;;9.10;;
7523;SDS011;3803;51.666;7.630;2023-12-20T01:17:27;14.38;;;9.25;;
7523;SDS011;3803;51.666;7.630;2023-12-20T01:17:48;15.25;;;9.48;;
7523;SDS011;3803;51.666;7.630;2023-12-20T01:18:12;14.55;;;9.40;;
7523;SDS011;3803;51.666;7.630;2023-12-20T01:18:33;15.52;;;9.48;;
7523;SDS011;3803;51.666;7.630;2023-12-20T01:18:56;14.52;;;9.23;;
7523;SDS011;3803;51.666;7.630;2023-12-20T01:19:22;12.57;;;8.48;;
7523;SDS011;3803;51.666;7.630;2023-12-20T01:19:46;12.68;;;8.68;;
7523;SDS011;3803;51.666;7.630;2023-12-20T01:21:28;12.40;;;8.05;;
7523;SDS011;3803;51.666;7.630;2023-12-20T01:21:51;13.98;;;8.38;;
7523;SDS011;3803;51.666;7.630;2023-12-20T01:22:16;13.60;;;8.30;;
7523;SDS011;3803;51.666;7.630;2023-12-20T01:22:37;15.37;;;8.13;;
7523;SDS011;3803;51.666;7.630;2023-12-20T01:22:58;16.10;;;8.23;;
7523;SDS011;3803;51.666;7.630;2023-12-20T01:23:19;17.17;;;8.30;;
7523;SDS011;3803;51.666;7.630;2023-12-20T01:23:40;16.70;;;7.95;;
7523;SDS011;3803;51.666;7.630;2023-12-20T01:24:03;15.43;;;7.97;;
7523;SDS011;3803;51.666;7.630;2023-12-20T01:24:26;13.63;;;7.90;;
7523;SDS011;3803;51.666;7.630;2023-12-20T01:24:59;14.52;;;8.50;;
7523;SDS011;3803;51.666;7.630;2023-12-20T01:25:48;12.25;;;8.63;;
7523;SDS011;3803;51.666;7.630;2023-12-20T01:26:09;12.68;;;8.90;;
7523;SDS011;3803;51.666;7.630;2023-12-20T01:26:33;15.75;;;9.32;;
7523;SDS011;3803;51.666;7.630;2023-12-20T01:26:53;15.60;;;9.07;;
7523;SDS011;3803;51.666;7.630;2023-12-20T01:27:16;15.80;;;8.98;;
7523;SDS011;3803;51.666;7.630;2023-12-20T01:27:38;15.73;;;8.45;;
7523;SDS011;3803;51.666;7.630;2023-12-20T01:27:58;16.35;;;8.38;;
7523;SDS011;3803;51.666;7.630;2023-12-20T01:28:19;16.00;;;8.47;;
7523;SDS011;3803;51.666;7.630;2023-12-20T01:28:40;13.43;;;8.10;;
7523;SDS011;3803;51.666;7.630;2023-12-20T01:29:01;13.35;;;7.93;;
7523;SDS011;3803;51.666;7.630;2023-12-20T01:29:22;13.10;;;8.00;;
7523;SDS011;3803;51.666;7.630;2023-12-20T01:29:43;12.82;;;8.43;;
7523;SDS011;3803;51.666;7.630;2023-12-20T01:30:04;14.32;;;8.50;;
7523;SDS011;3803;51.666;7.630;2023-12-20T01:32:26;12.15;;;8.05;;
7523;SDS011;3803;51.666;7.630;2023-12-20T01:32:50;10.40;;;7.63;;
7523;SDS011;3803;51.666;7.630;2023-12-20T01:33:11;12.75;;;7.43;;
7523;SDS011;3803;51.666;7.630;2023-12-20T01:33:32;13.50;;;7.28;;
7523;SDS011;3803;51.666;7.630;2023-12-20T01:33:55;12.10;;;6.80;;
7523;SDS011;3803;51.666;7.630;2023-12-20T01:34:16;9.73;;;6.90;;
7523;SDS011;3803;51.666;7.630;2023-12-20T01:34:38;9.02;;;6.85;;
7523;SDS011;3803;51.666;7.630;2023-12-20T01:35:03;11.13;;;7.22;;
7523;SDS011;3803;51.666;7.630;2023-12-20T01:35:27;18.10;;;7.20;;
7523;SDS011;3803;51.666;7.630;2023-12-20T01:35:53;18.52;;;7.13;;
7523;SDS011;3803;51.666;7.630;2023-12-20T01:36:14;16.27;;;6.57;;
7523;SDS011;3803;51.666;7.630;2023-12-20T01:36:35;10.65;;;6.47;;
7523;SDS011;3803;51.666;7.630;2023-12-20T01:36:56;12.88;;;6.60;;
7523;SDS011;3803;51.666;7.630;2023-12-20T01:37:17;11.60;;;6.75;;
7523;SDS011;3803;51.666;7.630;2023-12-20T01:37:40;10.63;;;6.57;;
7523;SDS011;3803;51.666;7.630;2023-12-20T01:38:01;8.87;;;6.43;;
7523;SDS011;3803;51.666;7.630;2023-12-20T01:38:27;10.85;;;6.70;;
7523;SDS011;3803;51.666;7.630;2023-12-20T01:38:48;12.80;;;6.80;;
7523;SDS011;3803;51.666;7.630;2023-12-20T01:39:09;12.93;;;6.57;;
7523;SDS011;3803;51.666;7.630;2023-12-20T01:39:30;11.68;;;6.40;;
7523;SDS011;3803;51.666;7.630;2023-12-20T01:39:51;12.17;;;6.50;;
7523;SDS011;3803;51.666;7.630;2023-12-20T01:40:15;12.13;;;6.53;;
7523;SDS011;3803;51.666;7.630;2023-12-20T01:40:37;10.93;;;6.10;;
7523;SDS011;3803;51.666;7.630;2023-12-20T01:41:01;8.05;;;6.00;;
7523;SDS011;3803;51.666;7.630;2023-12-20T01:41:24;9.48;;;5.88;;
7523;SDS011;3803;51.666;7.630;2023-12-20T01:41:45;8.82;;;5.55;;
7523;SDS011;3803;51.666;7.630;2023-12-20T01:42:14;9.57;;;5.78;;
7523;SDS011;3803;51.666;7.630;2023-12-20T01:42:35;8.68;;;5.70;;
7523;SDS011;3803;51.666;7.630;2023-12-20T01:43:02;10.00;;;5.45;;
7523;SDS011;3803;51.666;7.630;2023-12-20T01:43:29;13.20;;;6.13;;
7523;SDS011;3803;51.666;7.630;2023-12-20T01:43:50;12.15;;;6.00;;
7523;SDS011;3803;51.666;7.630;2023-12-20T01:44:16;10.10;;;5.45;;
7523;SDS011;3803;51.666;7.630;2023-12-20T01:44:39;10.70;;;5.90;;
7523;SDS011;3803;51.666;7.630;2023-12-20T01:44:59;11.45;;;5.80;;
7523;SDS011;3803;51.666;7.630;2023-12-20T01:45:20;12.30;;;5.85;;
7523;SDS011;3803;51.666;7.630;2023-12-20T01:45:41;9.90;;;5.30;;
7523;SDS011;3803;51.666;7.630;2023-12-20T01:46:02;10.57;;;5.70;;
7523;SDS011;3803;51.666;7.630;2023-12-20T01:46:23;8.82;;;5.15;;
7523;SDS011;3803;51.666;7.630;2023-12-20T01:46:46;10.48;;;5.50;;
7523;SDS011;3803;51.666;7.630;2023-12-20T01:47:09;12.88;;;5.82;;
7523;SDS011;3803;51.666;7.630;2023-12-20T01:47:30;14.50;;;6.00;;
7523;SDS011;3803;51.666;7.630;2023-12-20T01:47:59;14.60;;;5.53;;
7523;SDS011;3803;51.666;7.630;2023-12-20T01:48:23;13.35;;;5.47;;
7523;SDS011;3803;51.666;7.630;2023-12-20T01:48:50;15.48;;;5.90;;
7523;SDS011;3803;51.666;7.630;2023-12-20T01:49:17;13.85;;;5.80;;
7523;SDS011;3803;51.666;7.630;2023-12-20T01:49:38;9.13;;;5.20;;
7523;SDS011;3803;51.666;7.630;2023-12-20T01:49:59;8.50;;;4.90;;
7523;SDS011;3803;51.666;7.630;2023-12-20T01:50:21;8.43;;;4.78;;
7523;SDS011;3803;51.666;7.630;2023-12-20T01:50:42;9.23;;;4.95;;
7523;SDS011;3803;51.666;7.630;2023-12-20T01:51:04;15.43;;;5.55;;
7523;SDS011;3803;51.666;7.630;2023-12-20T01:51:25;14.95;;;5.75;;
7523;SDS011;3803;51.666;7.630;2023-12-20T01:51:47;14.20;;;5.70;;
7523;SDS011;3803;51.666;7.630;2023-12-20T01:52:14;7.63;;;4.95;;
7523;SDS011;3803;51.666;7.630;2023-12-20T01:52:35;8.25;;;5.00;;
7523;SDS011;3803;51.666;7.630;2023-12-20T01:52:59;8.55;;;5.40;;
7523;SDS011;3803;51.666;7.630;2023-12-20T01:53:21;11.85;;;5.60;;
7523;SDS011;3803;51.666;7.630;2023-12-20T01:53:44;12.65;;;5.70;;
7523;SDS011;3803;51.666;7.630;2023-12-20T01:54:05;11.65;;;5.38;;
7523;SDS011;3803;51.666;7.630;2023-12-20T01:54:29;9.30;;;5.25;;
7523;SDS011;3803;51.666;7.630;2023-12-20T01:54:50;10.35;;;5.40;;
7523;SDS011;3803;51.666;7.630;2023-12-20T01:55:12;14.55;;;5.88;;
7523;SDS011;3803;51.666;7.630;2023-12-20T01:55:37;16.40;;;6.28;;
7523;SDS011;3803;51.666;7.630;2023-12-20T01:56:08;10.48;;;5.70;;
7523;SDS011;3803;51.666;7.630;2023-12-20T01:56:32;7.43;;;5.32;;
7523;SDS011;3803;51.666;7.630;2023-12-20T01:56:54;8.63;;;5.28;;
7523;SDS011;3803;51.666;7.630;2023-12-20T01:57:15;10.25;;;5.47;;
7523;SDS011;3803;51.666;7.630;2023-12-20T01:57:36;13.63;;;4.97;;
7523;SDS011;3803;51.666;7.630;2023-12-20T01:58:00;15.15;;;4.80;;
7523;SDS011;3803;51.666;7.630;2023-12-20T01:58:21;11.15;;;4.85;;
7523;SDS011;3803;51.666;7.630;2023-12-20T01:58:46;12.57;;;5.20;;
7523;SDS011;3803;51.666;7.630;2023-12-20T01:59:14;13.23;;;5.70;;
7523;SDS011;3803;51.666;7.630;2023-12-20T01:59:35;14.32;;;6.00;;
7523;SDS011;3803;51.666;7.630;2023-12-20T01:59:55;13.40;;;5.85;;
7523;SDS011;3803;51.666;7.630;2023-12-20T02:00:17;12.32;;;5.75;;
7523;SDS011;3803;51.666;7.630;2023-12-20T02:00:38;12.90;;;5.80;;
7523;SDS011;3803;51.666;7.630;2023-12-20T02:00:59;12.07;;;5.55;;
7523;SDS011;3803;51.666;7.630;2023-12-20T02:01:20;13.18;;;5.10;;
7523;SDS011;3803;51.666;7.630;2023-12-20T02:01:41;12.13;;;4.70;;
7523;SDS011;3803;51.666;7.630;2023-12-20T02:02:03;11.38;;;4.70;;
7523;SDS011;3803;51.666;7.630;2023-12-20T02:02:24;9.10;;;4.85;;
7523;SDS011;3803;51.666;7.630;2023-12-20T02:02:50;11.43;;;5.68;;
7523;SDS011;3803;51.666;7.630;2023-12-20T02:03:14;11.30;;;5.82;;
7523;SDS011;3803;51.666;7.630;2023-12-20T02:03:42;10.50;;;5.53;;
7523;SDS011;3803;51.666;7.630;2023-12-20T02:04:04;8.20;;;4.82;;
7523;SDS011;3803;51.666;7.630;2023-12-20T02:04:30;8.10;;;4.88;;
7523;SDS011;3803;51.666;7.630;2023-12-20T02:04:52;7.35;;;4.70;;
7523;SDS011;3803;51.666;7.630;2023-12-20T02:05:13;7.32;;;4.82;;
7523;SDS011;3803;51.666;7.630;2023-12-20T02:05:34;10.27;;;5.30;;
7523;SDS011;3803;51.666;7.630;2023-12-20T02:05:57;10.48;;;4.90;;
7523;SDS011;3803;51.666;7.630;2023-12-20T02:06:18;8.25;;;4.45;;
7523;SDS011;3803;51.666;7.630;2023-12-20T02:06:41;10.00;;;4.30;;
7523;SDS011;3803;51.666;7.630;2023-12-20T02:07:04;11.73;;;4.70;;
7523;SDS011;3803;51.666;7.630;2023-12-20T02:07:30;11.70;;;4.70;;
7523;SDS011;3803;51.666;7.630;2023-12-20T02:07:57;10.18;;;4.30;;
7523;SDS011;3803;51.666;7.630;2023-12-20T02:08:18;10.60;;;4.40;;
7523;SDS011;3803;51.666;7.630;2023-12-20T02:08:43;11.88;;;4.57;;
7523;SDS011;3803;51.666;7.630;2023-12-20T02:09:04;13.27;;;5.05;;
7523;SDS011;3803;51.666;7.630;2023-12-20T02:09:25;17.23;;;5.45;;
7523;SDS011;3803;51.666;7.630;2023-12-20T02:10:28;11.05;;;4.35;;
7523;SDS011;3803;51.666;7.630;2023-12-20T02:10:49;8.52;;;4.47;;
7523;SDS011;3803;51.666;7.630;2023-12-20T02:11:10;7.85;;;4.43;;
7523;SDS011;3803;51.666;7.630;2023-12-20T02:11:31;8.02;;;4.40;;
7523;SDS011;3803;51.666;7.630;2023-12-20T02:11:52;5.80;;;3.60;;
7523;SDS011;3803;51.666;7.630;2023-12-20T02:12:15;7.60;;;4.10;;
7523;SDS011;3803;51.666;7.630;2023-12-20T02:12:38;8.10;;;4.00;;
7523;SDS011;3803;51.666;7.630;2023-12-20T02:13:45;10.10;;;4.40;;
7523;SDS011;3803;51.666;7.630;2023-12-20T02:14:08;9.52;;;4.50;;
7523;SDS011;3803;51.666;7.630;2023-12-20T02:14:32;14.68;;;5.00;;
7523;SDS011;3803;51.666;7.630;2023-12-20T02:14:58;13.32;;;5.00;;
7523;SDS011;3803;51.666;7.630;2023-12-20T02:15:21;8.40;;;4.55;;
7523;SDS011;3803;51.666;7.630;2023-12-20T02:15:45;9.43;;;4.18;;
7523;SDS011;3803;51.666;7.630;2023-12-20T02:16:11;12.13;;;3.90;;
7523;SDS011;3803;51.666;7.630;2023-12-20T02:16:32;10.63;;;3.63;;
7523;SDS011;3803;51.666;7.630;2023-12-20T02:16:53;8.50;;;3.80;;
7523;SDS011;3803;51.666;7.630;2023-12-20T02:17:14;7.70;;;3.72;;
7523;SDS011;3803;51.666;7.630;2023-12-20T02:17:36;7.55;;;3.60;;
7523;SDS011;3803;51.666;7.630;2023-12-20T02:19:14;5.30;;;3.20;;
7523;SDS011;3803;51.666;7.630;2023-12-20T02:19:36;8.93;;;3.80;;
7523;SDS011;3803;51.666;7.630;2023-12-20T02:19:59;11.95;;;4.32;;
7523;SDS011;3803;51.666;7.630;2023-12-20T02:20:25;10.10;;;4.20;;